createdAt,value
2023-05-06T00:00:08.028Z,101200.00
2023-05-06T00:02:34.933Z,101195.00
2023-05-06T00:05:03.345Z,101204.00
2023-05-06T00:07:30.484Z,101185.00
2023-05-06T00:09:57.307Z,101201.00
2023-05-06T00:12:24.212Z,101191.00
2023-05-06T00:14:51.125Z,101187.00
2023-05-06T00:17:18.314Z,101197.00
2023-05-06T00:19:45.240Z,101199.00
2023-05-06T00:22:12.129Z,101194.00
2023-05-06T00:24:38.975Z,101194.00
2023-05-06T00:27:05.922Z,101205.00
2023-05-06T00:29:32.715Z,101203.00
2023-05-06T00:31:59.590Z,101200.00
2023-05-06T00:34:26.488Z,101210.00
2023-05-06T00:36:53.300Z,101211.00
2023-05-06T00:39:21.113Z,101213.00
2023-05-06T00:41:48.009Z,101210.00
2023-05-06T00:44:15.108Z,101209.00
2023-05-06T00:46:43.526Z,101207.00
2023-05-06T00:49:11.904Z,101203.00
2023-05-06T00:51:38.849Z,101192.00
2023-05-06T00:54:05.887Z,101198.00
2023-05-06T00:56:33.042Z,101212.00
2023-05-06T00:59:01.604Z,101212.00
2023-05-06T01:01:31.487Z,101209.00
2023-05-06T01:03:59.039Z,101107.00
2023-05-06T01:06:44.697Z,101228.00
2023-05-06T01:09:50.558Z,101206.00
2023-05-06T01:12:36.549Z,101208.00
2023-05-06T01:15:16.387Z,101207.00
2023-05-06T01:17:50.315Z,101211.00
2023-05-06T01:20:21.263Z,101207.00
2023-05-06T01:22:50.252Z,101215.00
2023-05-06T01:25:23.780Z,101225.00
2023-05-06T01:27:50.837Z,101220.00
2023-05-06T01:30:20.201Z,101221.00
2023-05-06T01:33:08.435Z,101212.00
2023-05-06T01:36:05.256Z,101212.00
2023-05-06T01:38:52.370Z,101218.00
2023-05-06T01:41:21.928Z,101214.00
2023-05-06T01:43:50.573Z,101213.00
2023-05-06T01:46:23.657Z,101207.00
2023-05-06T01:48:55.052Z,101210.00
2023-05-06T01:51:22.820Z,101209.00
2023-05-06T01:53:49.912Z,101204.00
2023-05-06T01:56:17.506Z,101192.00
2023-05-06T01:58:44.371Z,101204.00
2023-05-06T02:01:11.382Z,101213.00
2023-05-06T02:03:38.397Z,101202.00
2023-05-06T02:06:05.373Z,101198.00
2023-05-06T02:08:32.205Z,101188.00
2023-05-06T02:10:59.025Z,101193.00
2023-05-06T02:13:26.096Z,101192.00
2023-05-06T02:15:54.634Z,101194.00
2023-05-06T02:18:21.622Z,101202.00
2023-05-06T02:20:48.542Z,101191.00
2023-05-06T02:23:15.555Z,101194.00
2023-05-06T02:25:43.149Z,101185.00
2023-05-06T02:28:10.108Z,101075.00
2023-05-06T02:30:36.969Z,101199.00
2023-05-06T02:33:04.105Z,101204.00
2023-05-06T02:35:30.988Z,101201.00
2023-05-06T02:37:57.844Z,101191.00
2023-05-06T02:40:24.725Z,101200.00
2023-05-06T02:42:51.619Z,101200.00
2023-05-06T02:45:18.618Z,101193.00
2023-05-06T02:47:45.571Z,101192.00
2023-05-06T02:50:12.426Z,101193.00
2023-05-06T02:52:39.334Z,101192.00
2023-05-06T02:55:07.184Z,101186.00
2023-05-06T02:57:34.209Z,101185.00
2023-05-06T03:00:01.122Z,101181.00
2023-05-06T03:02:28.009Z,101187.00
2023-05-06T03:04:54.975Z,101183.00
2023-05-06T03:07:21.809Z,101187.00
2023-05-06T03:09:48.622Z,101190.00
2023-05-06T03:12:15.582Z,101185.00
2023-05-06T03:14:42.445Z,101178.00
2023-05-06T03:17:09.312Z,101178.00
2023-05-06T03:19:36.406Z,101179.00
2023-05-06T03:22:03.445Z,101181.00
2023-05-06T03:24:30.370Z,101180.00
2023-05-06T03:26:58.519Z,101172.00
2023-05-06T03:29:25.496Z,101179.00
2023-05-06T03:31:52.356Z,101174.00
2023-05-06T03:34:19.176Z,101169.00
2023-05-06T03:36:46.247Z,101171.00
2023-05-06T03:39:13.105Z,101161.00
2023-05-06T03:41:40.083Z,101172.00
2023-05-06T03:44:06.951Z,101166.00
2023-05-06T03:46:33.870Z,101173.00
2023-05-06T03:49:02.725Z,101155.00
2023-05-06T03:51:30.780Z,101166.00
2023-05-06T03:53:58.300Z,101176.00
2023-05-06T03:56:25.157Z,101181.00
2023-05-06T03:58:53.768Z,101171.00
2023-05-06T04:01:21.732Z,101175.00
2023-05-06T04:03:48.679Z,101175.00
2023-05-06T04:06:15.551Z,101182.00
2023-05-06T04:08:42.430Z,101182.00
2023-05-06T04:11:09.350Z,101181.00
2023-05-06T04:13:36.502Z,101186.00
2023-05-06T04:16:04.101Z,101194.00
2023-05-06T04:18:31.589Z,101191.00
2023-05-06T04:20:58.458Z,101182.00
2023-05-06T04:23:25.458Z,101192.00
2023-05-06T04:25:52.964Z,101192.00
2023-05-06T04:28:19.760Z,101180.00
2023-05-06T04:30:46.959Z,101190.00
2023-05-06T04:33:13.909Z,101192.00
2023-05-06T04:35:41.174Z,101175.00
2023-05-06T04:38:07.982Z,101191.00
2023-05-06T04:40:38.625Z,101186.00
2023-05-06T04:43:05.406Z,101187.00
2023-05-06T04:45:32.544Z,101192.00
2023-05-06T04:47:59.424Z,101193.00
2023-05-06T04:50:26.350Z,101188.00
2023-05-06T04:52:53.228Z,101185.00
2023-05-06T04:55:20.276Z,101185.00
2023-05-06T04:57:47.122Z,101171.00
2023-05-06T05:00:14.635Z,101171.00
2023-05-06T05:02:41.585Z,101174.00
2023-05-06T05:05:09.054Z,101168.00
2023-05-06T05:07:36.086Z,101164.00
2023-05-06T05:10:03.081Z,101149.00
2023-05-06T05:12:29.928Z,101162.00
2023-05-06T05:14:56.741Z,101159.00
2023-05-06T05:17:23.609Z,101165.00
2023-05-06T05:19:50.611Z,101164.00
2023-05-06T05:22:17.447Z,101159.00
2023-05-06T05:24:44.600Z,101160.00
2023-05-06T05:27:11.469Z,101157.00
2023-05-06T05:29:38.879Z,101164.00
2023-05-06T05:32:05.766Z,101161.00
2023-05-06T05:34:32.692Z,101164.00
2023-05-06T05:36:59.568Z,101163.00
2023-05-06T05:39:26.371Z,101163.00
2023-05-06T05:41:53.238Z,101130.00
2023-05-06T05:44:20.163Z,101160.00
2023-05-06T05:46:47.100Z,101157.00
2023-05-06T05:49:13.936Z,101143.00
2023-05-06T05:51:40.810Z,101143.00
2023-05-06T05:54:07.770Z,101151.00
2023-05-06T05:56:34.762Z,101156.00
2023-05-06T05:59:01.952Z,101151.00
2023-05-06T06:01:28.935Z,101153.00
2023-05-06T06:03:56.353Z,101148.00
2023-05-06T06:06:24.313Z,101111.00
2023-05-06T06:08:51.268Z,101140.00
2023-05-06T06:11:18.291Z,101135.00
2023-05-06T06:13:45.142Z,101150.00
2023-05-06T06:16:12.174Z,101152.00
2023-05-06T06:18:39.086Z,101157.00
2023-05-06T06:21:06.025Z,101154.00
2023-05-06T06:23:32.927Z,101153.00
2023-05-06T06:25:59.955Z,101159.00
2023-05-06T06:28:27.039Z,101150.00
2023-05-06T06:30:54.041Z,101156.00
2023-05-06T06:33:21.012Z,101158.00
2023-05-06T06:35:47.926Z,101159.00
2023-05-06T06:38:14.727Z,101156.00
2023-05-06T06:40:41.601Z,101154.00
2023-05-06T06:43:08.450Z,101158.00
2023-05-06T06:45:35.687Z,101151.00
2023-05-06T06:48:02.571Z,101141.00
2023-05-06T06:50:29.582Z,101146.00
2023-05-06T06:52:56.499Z,101144.00
2023-05-06T06:55:23.462Z,101141.00
2023-05-06T06:57:50.357Z,101147.00
2023-05-06T07:00:17.431Z,101143.00
2023-05-06T07:02:44.387Z,101133.00
2023-05-06T07:05:11.549Z,101126.00
2023-05-06T07:07:38.747Z,101123.00
2023-05-06T07:10:07.024Z,101135.00
2023-05-06T07:12:34.012Z,101135.00
2023-05-06T07:15:00.917Z,101133.00
2023-05-06T07:17:27.797Z,101141.00
2023-05-06T07:19:54.658Z,101143.00
2023-05-06T07:22:21.560Z,101142.00
2023-05-06T07:24:48.509Z,101135.00
2023-05-06T07:27:15.386Z,101147.00
2023-05-06T07:29:42.301Z,101136.00
2023-05-06T07:32:09.264Z,101137.00
2023-05-06T07:34:36.468Z,101138.00
2023-05-06T07:37:03.942Z,101129.00
2023-05-06T07:39:31.158Z,101139.00
2023-05-06T07:41:58.585Z,101132.00
2023-05-06T07:44:25.493Z,101131.00
2023-05-06T07:46:52.665Z,101130.00
2023-05-06T07:49:19.709Z,101133.00
2023-05-06T07:51:46.628Z,101135.00
2023-05-06T07:54:13.541Z,101131.00
2023-05-06T07:56:40.548Z,101132.00
2023-05-06T07:59:07.509Z,101138.00
2023-05-06T08:01:34.397Z,101130.00
2023-05-06T08:04:04.857Z,101123.00
2023-05-06T08:06:32.260Z,101129.00
2023-05-06T08:08:59.687Z,101121.00
2023-05-06T08:11:26.619Z,101124.00
2023-05-06T08:13:53.539Z,101127.00
2023-05-06T08:16:21.632Z,101126.00
2023-05-06T08:18:49.406Z,101125.00
2023-05-06T08:21:16.257Z,101124.00
2023-05-06T08:23:43.237Z,101123.00
2023-05-06T08:26:10.090Z,101124.00
2023-05-06T08:28:36.908Z,101129.00
2023-05-06T08:31:03.792Z,101118.00
2023-05-06T08:33:30.924Z,101111.00
2023-05-06T08:35:59.087Z,101114.00
2023-05-06T08:38:26.442Z,101117.00
2023-05-06T08:40:54.825Z,101125.00
2023-05-06T08:43:27.396Z,101120.00
2023-05-06T08:45:55.454Z,101117.00
2023-05-06T08:48:22.322Z,101119.00
2023-05-06T08:50:51.021Z,101119.00
2023-05-06T08:53:18.765Z,101118.00
2023-05-06T08:55:49.350Z,101119.00
2023-05-06T08:58:18.038Z,101118.00
2023-05-06T09:00:46.378Z,101117.00
2023-05-06T09:03:13.627Z,101127.00
2023-05-06T09:05:40.778Z,101125.00
2023-05-06T09:08:07.705Z,101133.00
2023-05-06T09:10:45.244Z,101119.00
2023-05-06T09:13:18.578Z,101126.00
2023-05-06T09:15:49.129Z,101133.00
2023-05-06T09:18:17.013Z,101131.00
2023-05-06T09:20:48.119Z,101134.00
2023-05-06T09:23:17.830Z,101132.00
2023-05-06T09:25:47.166Z,101116.00
2023-05-06T09:28:14.726Z,101121.00
2023-05-06T09:30:45.043Z,101125.00
2023-05-06T09:33:12.702Z,101115.00
2023-05-06T09:35:44.263Z,101116.00
2023-05-06T09:38:11.130Z,101111.00
2023-05-06T09:40:39.181Z,101117.00
2023-05-06T09:43:06.641Z,101118.00
2023-05-06T09:45:33.807Z,101114.00
2023-05-06T09:48:01.145Z,101114.00
2023-05-06T09:50:28.726Z,101117.00
2023-05-06T09:52:56.455Z,101073.00
2023-05-06T09:55:26.639Z,101104.00
2023-05-06T09:57:55.099Z,101101.00
2023-05-06T10:00:28.064Z,101096.00
2023-05-06T10:02:55.393Z,101104.00
2023-05-06T10:05:25.945Z,101096.00
2023-05-06T10:07:54.813Z,101091.00
2023-05-06T10:10:25.408Z,101090.00
2023-05-06T10:12:52.814Z,101090.00
2023-05-06T10:15:19.880Z,101101.00
2023-05-06T10:17:52.557Z,101089.00
2023-05-06T10:20:21.683Z,101083.00
2023-05-06T10:23:13.642Z,101056.00
2023-05-06T10:25:43.901Z,101077.00
2023-05-06T10:28:12.897Z,101068.00
2023-05-06T10:30:48.091Z,101064.00
2023-05-06T10:33:18.890Z,101066.00
2023-05-06T10:36:01.445Z,101065.00
2023-05-06T10:38:39.998Z,101037.00
2023-05-06T10:41:09.636Z,101068.00
2023-05-06T10:43:44.004Z,101066.00
2023-05-06T10:46:16.711Z,101072.00
2023-05-06T10:49:11.854Z,101069.00
2023-05-06T10:51:42.537Z,101065.00
2023-05-06T10:54:18.376Z,101061.00
2023-05-06T10:56:48.321Z,101066.00
2023-05-06T10:59:24.035Z,101058.00
2023-05-06T11:02:08.459Z,101062.00
2023-05-06T11:04:37.503Z,101069.00
2023-05-06T11:07:13.723Z,101066.00
2023-05-06T11:09:59.605Z,101053.00
2023-05-06T11:12:46.147Z,101068.00
2023-05-06T11:15:38.053Z,101061.00
2023-05-06T11:18:30.908Z,101064.00
2023-05-06T11:21:00.964Z,101059.00
2023-05-06T11:23:43.274Z,101060.00
2023-05-06T11:26:11.696Z,101067.00
2023-05-06T11:28:40.302Z,101059.00
2023-05-06T11:31:08.997Z,101049.00
2023-05-06T11:33:37.500Z,101059.00
2023-05-06T11:36:05.324Z,101060.00
2023-05-06T11:38:56.397Z,101050.00
2023-05-06T11:41:23.696Z,101062.00
2023-05-06T11:43:55.623Z,101064.00
2023-05-06T11:46:29.513Z,101031.00
2023-05-06T11:48:56.397Z,101056.00
2023-05-06T11:51:24.691Z,101052.00
2023-05-06T11:53:54.269Z,101058.00
2023-05-06T11:56:21.230Z,101059.00
2023-05-06T11:58:48.111Z,101053.00
2023-05-06T12:01:14.951Z,101047.00
2023-05-06T12:03:41.924Z,101052.00
2023-05-06T12:06:08.860Z,101048.00
2023-05-06T12:08:37.730Z,101049.00
2023-05-06T12:11:09.215Z,101044.00
2023-05-06T12:13:37.780Z,101050.00
2023-05-06T12:16:08.249Z,101054.00
2023-05-06T12:18:37.315Z,101053.00
2023-05-06T12:21:04.509Z,101059.00
2023-05-06T12:23:31.617Z,101034.00
2023-05-06T12:26:08.305Z,101044.00
2023-05-06T12:28:36.984Z,101059.00
2023-05-06T12:31:24.220Z,101064.00
2023-05-06T12:33:51.413Z,101049.00
2023-05-06T12:36:19.537Z,101047.00
2023-05-06T12:38:57.785Z,101049.00
2023-05-06T12:41:36.346Z,101048.00
2023-05-06T12:44:32.312Z,101045.00
2023-05-06T12:47:03.377Z,101037.00
2023-05-06T12:49:51.664Z,101038.00
2023-05-06T12:52:30.937Z,101034.00
2023-05-06T12:55:01.637Z,101015.00
2023-05-06T12:57:28.531Z,101046.00
2023-05-06T12:59:56.351Z,101051.00
2023-05-06T13:02:23.430Z,101042.00
2023-05-06T13:04:50.414Z,101042.00
2023-05-06T13:07:17.250Z,101045.00
2023-05-06T13:09:44.834Z,101041.00
2023-05-06T13:12:11.772Z,101035.00
2023-05-06T13:14:40.168Z,101040.00
2023-05-06T13:17:08.163Z,101053.00
2023-05-06T13:19:35.865Z,101046.00
2023-05-06T13:22:02.917Z,101052.00
2023-05-06T13:24:30.766Z,101050.00
2023-05-06T13:26:59.845Z,101043.00
2023-05-06T13:29:29.470Z,101045.00
2023-05-06T13:31:56.470Z,101032.00
2023-05-06T13:34:23.527Z,101039.00
2023-05-06T13:36:51.472Z,101034.00
2023-05-06T13:39:18.640Z,101050.00
2023-05-06T13:41:50.058Z,101035.00
2023-05-06T13:44:18.301Z,101045.00
2023-05-06T13:46:46.508Z,101035.00
2023-05-06T13:49:14.843Z,101040.00
2023-05-06T13:51:41.822Z,101028.00
2023-05-06T13:54:08.714Z,101030.00
2023-05-06T13:56:35.901Z,101027.00
2023-05-06T13:59:02.749Z,101026.00
2023-05-06T14:01:29.721Z,101026.00
2023-05-06T14:04:00.136Z,101028.00
2023-05-06T14:06:27.627Z,101032.00
2023-05-06T14:08:54.765Z,101028.00
2023-05-06T14:11:21.642Z,101020.00
2023-05-06T14:13:48.955Z,101023.00
2023-05-06T14:16:16.660Z,101023.00
2023-05-06T14:18:43.588Z,101016.00
2023-05-06T14:21:10.480Z,101019.00
2023-05-06T14:23:37.918Z,100944.00
2023-05-06T14:26:04.926Z,101019.00
2023-05-06T14:28:31.753Z,101016.00
2023-05-06T14:30:59.502Z,101006.00
2023-05-06T14:33:26.379Z,101010.00
2023-05-06T14:35:53.320Z,101013.00
2023-05-06T14:38:20.468Z,101023.00
2023-05-06T14:40:47.291Z,101005.00
2023-05-06T14:43:14.166Z,101009.00
2023-05-06T14:45:41.288Z,101016.00
2023-05-06T14:48:08.593Z,101015.00
2023-05-06T14:50:36.011Z,101020.00
2023-05-06T14:53:03.977Z,101015.00
2023-05-06T14:55:31.202Z,101005.00
2023-05-06T14:57:58.024Z,101009.00
2023-05-06T15:00:25.296Z,101010.00
2023-05-06T15:02:52.198Z,101006.00
2023-05-06T15:05:19.201Z,101010.00
2023-05-06T15:07:46.376Z,101005.00
2023-05-06T15:10:13.452Z,101010.00
2023-05-06T15:12:40.412Z,101012.00
2023-05-06T15:15:08.576Z,101013.00
2023-05-06T15:17:38.132Z,101005.00
2023-05-06T15:20:07.004Z,100998.00
2023-05-06T15:22:34.064Z,101001.00
2023-05-06T15:25:01.634Z,101005.00
2023-05-06T15:27:28.696Z,101004.00
2023-05-06T15:29:55.723Z,101007.00
2023-05-06T15:32:22.712Z,101003.00
2023-05-06T15:34:49.590Z,101009.00
2023-05-06T15:37:19.263Z,101012.00
2023-05-06T15:39:47.945Z,101000.00
2023-05-06T15:42:16.910Z,101010.00
2023-05-06T15:44:43.970Z,101004.00
2023-05-06T15:47:10.949Z,101004.00
2023-05-06T15:52:08.334Z,101017.00
2023-05-06T15:54:37.530Z,101019.00
2023-05-06T15:57:07.471Z,101021.00
2023-05-06T15:59:34.460Z,101018.00
2023-05-06T16:02:26.231Z,101019.00
2023-05-06T16:04:48.955Z,101017.00
2023-05-06T16:07:16.620Z,101020.00
2023-05-06T16:09:43.450Z,101016.00
2023-05-06T16:12:10.375Z,101020.00
2023-05-06T16:14:37.369Z,101024.00
2023-05-06T16:17:04.294Z,101033.00
2023-05-06T16:19:32.100Z,101023.00
2023-05-06T16:21:59.100Z,101030.00
2023-05-06T16:24:25.914Z,101031.00
2023-05-06T16:26:54.677Z,101036.00
2023-05-06T16:29:21.744Z,101008.00
2023-05-06T16:31:49.149Z,101000.00
2023-05-06T16:34:16.149Z,101028.00
2023-05-06T16:36:43.608Z,101029.00
2023-05-06T16:39:10.489Z,101040.00
2023-05-06T16:41:37.416Z,101027.00
2023-05-06T16:44:04.520Z,101040.00
2023-05-06T16:46:33.108Z,101034.00
2023-05-06T16:49:00.070Z,101029.00
2023-05-06T16:51:26.987Z,101028.00
2023-05-06T16:53:53.807Z,101041.00
2023-05-06T16:56:20.673Z,101036.00
2023-05-06T16:58:47.507Z,101036.00
2023-05-06T17:01:14.428Z,101032.00
2023-05-06T17:03:41.443Z,101034.00
2023-05-06T17:06:08.424Z,101034.00
2023-05-06T17:08:36.761Z,101038.00
2023-05-06T17:11:07.114Z,101039.00
2023-05-06T17:13:34.840Z,101038.00
2023-05-06T17:16:01.772Z,101049.00
2023-05-06T17:18:28.772Z,101029.00
2023-05-06T17:20:57.460Z,101040.00
2023-05-06T17:23:25.087Z,101039.00
2023-05-06T17:25:52.085Z,101038.00
2023-05-06T17:28:19.258Z,101039.00
2023-05-06T17:30:46.674Z,101023.00
2023-05-06T17:33:13.803Z,101039.00
2023-05-06T17:35:40.760Z,101039.00
2023-05-06T17:38:07.979Z,101039.00
2023-05-06T17:40:34.887Z,101038.00
2023-05-06T17:43:01.952Z,101039.00
2023-05-06T17:45:28.982Z,101037.00
2023-05-06T17:47:56.671Z,101042.00
2023-05-06T17:50:23.924Z,101053.00
2023-05-06T17:52:52.782Z,101046.00
2023-05-06T17:55:23.893Z,101039.00
2023-05-06T17:57:52.533Z,101051.00
2023-05-06T18:00:19.943Z,101044.00
2023-05-06T18:02:47.098Z,101046.00
2023-05-06T18:05:14.348Z,101046.00
2023-05-06T18:07:41.697Z,101051.00
2023-05-06T18:10:09.352Z,101049.00
2023-05-06T18:12:36.899Z,101054.00
2023-05-06T18:15:05.038Z,101058.00
2023-05-06T18:17:31.929Z,101061.00
2023-05-06T18:19:58.959Z,101059.00
2023-05-06T18:22:26.037Z,101067.00
2023-05-06T18:24:55.317Z,101056.00
2023-05-06T18:27:23.088Z,101070.00
2023-05-06T18:29:50.203Z,101056.00
2023-05-06T18:32:18.231Z,101065.00
2023-05-06T18:34:45.359Z,101070.00
2023-05-06T18:37:12.353Z,101074.00
2023-05-06T18:39:42.786Z,101083.00
2023-05-06T18:42:09.912Z,101075.00
2023-05-06T18:44:37.259Z,101085.00
2023-05-06T18:47:04.312Z,101080.00
2023-05-06T18:49:31.484Z,101091.00
2023-05-06T18:51:58.557Z,101085.00
2023-05-06T18:54:25.729Z,101084.00
2023-05-06T18:56:52.700Z,101089.00
2023-05-06T18:59:19.712Z,101084.00
2023-05-06T19:01:47.794Z,101103.00
2023-05-06T19:04:14.881Z,101093.00
2023-05-06T19:06:42.127Z,101094.00
2023-05-06T19:09:09.013Z,101104.00
2023-05-06T19:11:36.043Z,101099.00
2023-05-06T19:14:03.664Z,101096.00
2023-05-06T19:16:30.571Z,101103.00
2023-05-06T19:18:57.512Z,101096.00
2023-05-06T19:21:24.531Z,101104.00
2023-05-06T19:23:51.491Z,101106.00
2023-05-06T19:26:18.442Z,101107.00
2023-05-06T19:28:45.646Z,101116.00
2023-05-06T19:31:12.621Z,101108.00
2023-05-06T19:33:40.957Z,101105.00
2023-05-06T19:36:07.878Z,101110.00
2023-05-06T19:38:35.262Z,101119.00
2023-05-06T19:41:02.672Z,101108.00
2023-05-06T19:43:29.861Z,101075.00
2023-05-06T19:45:57.173Z,101111.00
2023-05-06T19:48:24.399Z,101118.00
2023-05-06T19:50:53.905Z,101112.00
2023-05-06T19:53:22.876Z,101094.00
2023-05-06T19:55:49.901Z,101082.00
2023-05-06T19:58:17.504Z,101105.00
2023-05-06T20:00:45.627Z,101109.00
2023-05-06T20:03:13.530Z,101107.00
2023-05-06T20:05:41.299Z,101107.00
2023-05-06T20:08:11.419Z,101101.00
2023-05-06T20:10:38.712Z,101118.00
2023-05-06T20:13:07.056Z,101100.00
2023-05-06T20:15:35.325Z,101108.00
2023-05-06T20:18:03.616Z,101107.00
2023-05-06T20:20:34.229Z,101103.00
2023-05-06T20:23:04.601Z,101105.00
2023-05-06T20:25:31.896Z,101103.00
2023-05-06T20:27:59.471Z,101109.00
2023-05-06T20:30:26.842Z,101101.00
2023-05-06T20:32:53.978Z,101106.00
2023-05-06T20:35:20.936Z,101102.00
2023-05-06T20:37:47.867Z,101111.00
2023-05-06T20:40:15.221Z,101102.00
2023-05-06T20:42:42.124Z,101104.00
2023-05-06T20:45:09.950Z,101103.00
2023-05-06T20:47:37.114Z,101092.00
2023-05-06T20:50:04.436Z,101109.00
2023-05-06T20:52:31.634Z,101107.00
2023-05-06T20:54:58.552Z,101101.00
2023-05-06T20:57:25.794Z,101106.00
2023-05-06T20:59:52.896Z,101103.00
2023-05-06T21:02:19.910Z,101109.00
2023-05-06T21:04:46.996Z,101110.00
2023-05-06T21:07:14.058Z,101107.00
2023-05-06T21:09:40.978Z,101115.00
2023-05-06T21:12:07.893Z,101114.00
2023-05-06T21:14:34.840Z,101115.00
2023-05-06T21:17:01.822Z,101116.00
2023-05-06T21:19:28.717Z,101115.00
2023-05-06T21:21:56.717Z,101123.00
2023-05-06T21:24:23.599Z,101121.00
2023-05-06T21:26:51.353Z,101125.00
2023-05-06T21:29:18.686Z,101113.00
2023-05-06T21:31:45.493Z,101116.00
2023-05-06T21:34:12.458Z,101121.00
2023-05-06T21:36:39.305Z,101120.00
2023-05-06T21:39:12.125Z,101126.00
2023-05-06T21:41:40.063Z,101127.00
2023-05-06T21:44:09.062Z,101119.00
2023-05-06T21:46:37.733Z,101126.00
2023-05-06T21:49:05.220Z,101121.00
2023-05-06T21:51:34.537Z,101126.00
2023-05-06T21:54:02.471Z,101125.00
2023-05-06T21:56:29.720Z,101124.00
2023-05-06T21:58:56.745Z,101121.00
2023-05-06T22:01:26.305Z,101125.00
2023-05-06T22:03:53.937Z,101122.00
2023-05-06T22:06:21.503Z,101124.00
2023-05-06T22:08:48.403Z,101118.00
2023-05-06T22:11:15.821Z,101127.00
2023-05-06T22:13:42.707Z,101122.00
2023-05-06T22:16:09.807Z,101125.00
2023-05-06T22:18:41.157Z,101132.00
2023-05-06T22:21:08.711Z,101128.00
2023-05-06T22:23:35.738Z,101128.00
2023-05-06T22:26:02.876Z,101124.00
2023-05-06T22:28:29.898Z,101124.00
2023-05-06T22:30:57.242Z,101121.00
2023-05-06T22:33:25.933Z,101126.00
2023-05-06T22:35:52.900Z,101120.00
2023-05-06T22:38:19.847Z,101121.00
2023-05-06T22:40:46.712Z,101125.00
2023-05-06T22:43:13.614Z,101121.00
2023-05-06T22:45:40.446Z,101124.00
2023-05-06T22:48:07.661Z,101119.00
2023-05-06T22:50:34.582Z,101115.00
2023-05-06T22:53:10.389Z,101126.00
2023-05-06T22:55:41.717Z,101112.00
2023-05-06T22:58:08.673Z,101121.00
2023-05-06T23:00:35.876Z,101125.00
2023-05-06T23:03:02.990Z,101121.00
2023-05-06T23:05:29.952Z,101125.00
2023-05-06T23:07:56.835Z,101124.00
2023-05-06T23:10:23.756Z,101116.00
2023-05-06T23:12:50.745Z,101125.00
2023-05-06T23:15:17.709Z,101124.00
2023-05-06T23:17:44.645Z,101116.00
2023-05-06T23:20:12.846Z,101120.00
2023-05-06T23:22:39.843Z,101125.00
2023-05-06T23:25:10.772Z,101124.00
2023-05-06T23:27:40.395Z,101126.00
2023-05-06T23:30:08.995Z,101135.00
2023-05-06T23:32:36.874Z,101137.00
2023-05-06T23:35:04.844Z,101138.00
2023-05-06T23:37:31.936Z,101136.00
2023-05-06T23:39:58.935Z,101139.00
2023-05-06T23:42:26.498Z,101134.00
2023-05-06T23:44:53.598Z,101148.00
2023-05-06T23:47:20.787Z,101141.00
2023-05-06T23:49:47.734Z,101115.00
2023-05-06T23:52:14.700Z,101139.00
2023-05-06T23:54:41.560Z,101135.00
2023-05-06T23:57:08.401Z,101133.00
2023-05-06T23:59:35.514Z,101139.00
